Time;durP1;ratioP1;P1;durP2;ratioP2;P2;SDS_P1;SDS_P2;PMS_P1;PMS_P2;Temp;Humidity;BMP_temperature;BMP_pressure;BME280_temperature;BME280_humidity;BME280_pressure;Samples;Min_cycle;Max_cycle;Signal;HPM_P1;HPM_P2
2022/08/27 00:03:18;;;;;;;9.80;4.47;;;;;;;22.67;64.97;97601.19;8255731;28;20238;-79
2022/08/27 00:07:21;;;;;;;7.90;4.67;;;;;;;22.69;64.81;97603.69;8256479;28;20500;-78
2022/08/27 00:11:25;;;;;;;7.03;4.87;;;;;;;22.67;65.29;97603.81;8255630;28;20432;-79
2022/08/27 00:15:29;;;;;;;13.73;5.53;;;;;;;22.56;65.57;97604.06;8255360;28;20427;-78
2022/08/27 00:19:34;;;;;;;14.00;5.17;;;;;;;22.55;65.42;97615.63;8255404;28;20230;-78
2022/08/27 00:23:38;;;;;;;8.60;5.10;;;;;;;22.57;65.30;97617.13;8254879;28;20246;-78
2022/08/27 00:27:41;;;;;;;15.47;5.90;;;;;;;22.56;65.53;97626.03;8254989;28;20237;-79
2022/08/27 00:31:44;;;;;;;8.20;4.60;;;;;;;22.55;65.36;97632.28;8255025;28;20245;-78
2022/08/27 00:35:55;;;;;;;9.30;4.90;;;;;;;22.57;65.50;97637.41;8255148;28;20253;-78
2022/08/27 00:39:58;;;;;;;11.23;5.60;;;;;;;22.55;65.86;97634.91;8255332;28;20426;-78
2022/08/27 00:44:02;;;;;;;12.13;5.50;;;;;;;22.49;66.37;97638.16;8254445;28;20234;-77
2022/08/27 00:48:06;;;;;;;10.40;5.63;;;;;;;22.53;65.86;97634.22;8255294;28;20563;-78
2022/08/27 00:52:22;;;;;;;11.53;5.40;;;;;;;22.52;65.78;97637.00;8255907;28;20241;-79
2022/08/27 00:56:27;;;;;;;9.77;5.50;;;;;;;22.51;65.79;97640.66;8253529;28;20226;-78
2022/08/27 01:00:30;;;;;;;7.97;4.80;;;;;;;22.46;66.21;97635.81;8254048;28;20237;-79
2022/08/27 01:04:34;;;;;;;9.53;5.30;;;;;;;22.52;66.15;97637.00;8253831;28;20233;-78
2022/08/27 01:08:42;;;;;;;9.97;5.40;;;;;;;22.48;65.49;97635.66;8253488;28;20236;-78
2022/08/27 01:12:45;;;;;;;7.97;5.70;;;;;;;22.44;65.93;97640.41;8253561;28;20557;-78
2022/08/27 01:16:57;;;;;;;10.17;5.70;;;;;;;22.53;65.69;97643.97;8252873;28;20451;-78
2022/08/27 01:21:04;;;;;;;8.37;5.50;;;;;;;22.48;65.68;97635.66;8253372;28;20525;-78
2022/08/27 01:25:10;;;;;;;9.70;5.83;;;;;;;22.43;66.00;97647.50;8253263;28;23809;-78
2022/08/27 01:29:13;;;;;;;9.77;6.13;;;;;;;22.37;65.98;97632.28;8252955;28;20234;-78
2022/08/27 01:33:19;;;;;;;9.83;6.20;;;;;;;22.42;66.28;97639.75;8252733;28;20237;-78
2022/08/27 01:37:22;;;;;;;9.27;5.67;;;;;;;22.44;66.30;97648.31;8253319;28;20396;-78
2022/08/27 01:41:27;;;;;;;13.03;5.90;;;;;;;22.42;66.03;97659.03;8252689;28;20246;-79
2022/08/27 01:45:33;;;;;;;10.47;6.53;;;;;;;22.44;66.06;97664.16;8252586;28;20238;-78
2022/08/27 01:49:36;;;;;;;11.23;6.70;;;;;;;22.43;65.86;97659.88;8252222;28;20249;-78
2022/08/27 01:53:39;;;;;;;9.17;6.37;;;;;;;22.40;66.06;97658.34;8252260;28;20234;-78
2022/08/27 01:57:43;;;;;;;10.67;6.30;;;;;;;22.48;66.23;97654.13;8252223;28;20230;-78
2022/08/27 02:01:46;;;;;;;8.33;6.30;;;;;;;22.44;66.40;97646.50;8252064;28;20234;-78
2022/08/27 02:05:49;;;;;;;10.50;6.53;;;;;;;22.42;66.06;97656.38;8251209;28;20230;-78
2022/08/27 02:09:52;;;;;;;10.03;6.53;;;;;;;22.48;66.57;97648.84;8251674;28;20236;-78
2022/08/27 02:13:56;;;;;;;10.60;7.40;;;;;;;22.49;65.45;97645.25;8251498;28;20245;-78
2022/08/27 02:17:59;;;;;;;13.57;7.63;;;;;;;22.45;65.52;97648.19;8251516;28;20237;-79
2022/08/27 02:22:02;;;;;;;13.13;7.10;;;;;;;22.44;66.10;97645.69;8251257;28;20420;-78
2022/08/27 02:26:04;;;;;;;12.00;7.30;;;;;;;22.41;65.90;97649.47;8251107;28;20563;-78
2022/08/27 02:30:12;;;;;;;11.07;6.87;;;;;;;22.43;66.09;97644.88;8251132;28;20246;-78
2022/08/27 02:34:14;;;;;;;10.20;6.83;;;;;;;22.37;66.49;97636.72;8251048;28;20244;-78
2022/08/27 02:38:18;;;;;;;11.50;7.40;;;;;;;22.29;66.64;97637.47;8250862;28;20238;-78
2022/08/27 02:42:21;;;;;;;12.10;7.43;;;;;;;22.36;66.63;97638.53;8250964;28;20237;-78
2022/08/27 02:46:26;;;;;;;15.97;8.43;;;;;;;22.40;66.38;97631.97;8250336;28;20238;-78
2022/08/27 02:50:29;;;;;;;11.73;8.33;;;;;;;22.44;66.30;97635.13;8250401;28;20237;-78
2022/08/27 02:54:32;;;;;;;12.30;8.43;;;;;;;22.45;65.93;97629.72;8250428;28;20287;-78
2022/08/27 02:58:34;;;;;;;11.13;8.03;;;;;;;22.46;66.40;97622.63;8250269;28;20547;-79
2022/08/27 03:02:39;;;;;;;13.43;8.17;;;;;;;22.43;66.33;97621.13;8250150;28;20234;-78
2022/08/27 03:06:42;;;;;;;14.33;8.90;;;;;;;22.47;65.77;97623.47;8250156;28;20230;-78
2022/08/27 03:10:45;;;;;;;12.47;8.20;;;;;;;22.45;66.25;97618.34;8249849;28;20434;-78
2022/08/27 03:14:48;;;;;;;11.13;7.93;;;;;;;22.37;66.23;97608.53;8249783;28;20238;-78
2022/08/27 03:18:52;;;;;;;14.60;8.37;;;;;;;22.44;66.33;97608.75;8258769;28;20246;-78
2022/08/27 03:22:55;;;;;;;13.70;8.30;;;;;;;22.35;66.35;97599.97;8260676;28;20234;-78
2022/08/27 03:26:58;;;;;;;14.67;8.70;;;;;;;22.35;65.96;97602.59;8260316;28;20238;-78
2022/08/27 03:31:03;;;;;;;13.87;8.57;;;;;;;22.38;66.40;97596.19;8260452;28;20241;-78
2022/08/27 03:35:08;;;;;;;16.93;9.20;;;;;;;22.34;66.14;97590.38;8260016;28;20544;-78
2022/08/27 03:39:11;;;;;;;11.87;8.50;;;;;;;22.30;66.27;97596.94;8260221;28;20232;-78
2022/08/27 03:43:14;;;;;;;10.27;8.17;;;;;;;22.33;66.70;97588.72;8260411;28;20513;-78
2022/08/27 03:47:18;;;;;;;11.70;8.17;;;;;;;22.35;66.04;97591.19;8260126;28;20259;-78
2022/08/27 03:51:22;;;;;;;11.80;8.50;;;;;;;22.34;66.01;97600.09;8260334;28;20527;-78
2022/08/27 03:55:25;;;;;;;10.03;8.33;;;;;;;22.29;66.34;97591.81;8260505;28;20244;-78
2022/08/27 03:59:28;;;;;;;12.50;8.50;;;;;;;22.32;66.21;97597.59;8259941;28;20244;-78
2022/08/27 04:03:31;;;;;;;12.83;8.70;;;;;;;22.31;65.84;97595.13;8260029;28;20437;-78
2022/08/27 04:07:36;;;;;;;10.43;8.03;;;;;;;22.29;66.23;97589.16;8259917;28;20244;-78
2022/08/27 04:11:39;;;;;;;12.17;8.37;;;;;;;22.24;66.39;97585.16;8259834;28;20237;-79
2022/08/27 04:15:43;;;;;;;11.30;7.87;;;;;;;22.24;66.46;97589.59;8259938;28;20234;-78
2022/08/27 04:19:46;;;;;;;13.77;7.93;;;;;;;22.21;66.58;97595.16;8259751;28;20245;-78
2022/08/27 04:23:50;;;;;;;12.03;8.37;;;;;;;22.12;66.55;97591.59;8259228;28;20238;-78
2022/08/27 04:27:55;;;;;;;10.63;8.40;;;;;;;22.15;66.48;97593.94;8258159;28;20246;-78
2022/08/27 04:31:58;;;;;;;13.93;9.03;;;;;;;22.15;66.25;97601.88;8254496;28;20529;-78
2022/08/27 04:36:03;;;;;;;12.07;8.73;;;;;;;22.18;66.54;97606.00;8254343;28;20234;-78
2022/08/27 04:40:10;;;;;;;14.97;9.13;;;;;;;22.18;66.38;97604.22;8254297;28;20226;-78
2022/08/27 04:44:13;;;;;;;15.43;9.10;;;;;;;22.15;67.01;97603.69;8254302;28;20230;-78
2022/08/27 04:48:17;;;;;;;13.97;9.27;;;;;;;22.17;66.77;97607.00;8254326;28;20431;-78
2022/08/27 04:52:20;;;;;;;13.83;8.93;;;;;;;22.18;66.78;97613.91;8254092;28;20305;-79
2022/08/27 04:56:24;;;;;;;16.80;9.10;;;;;;;22.18;66.78;97616.56;8253758;28;20238;-78
2022/08/27 05:00:30;;;;;;;10.87;8.80;;;;;;;22.16;67.10;97627.28;8253878;28;20241;-78
2022/08/27 05:04:35;;;;;;;16.20;9.10;;;;;;;22.23;66.94;97627.50;8253850;28;20521;-78
2022/08/27 05:08:38;;;;;;;15.00;9.57;;;;;;;22.18;66.61;97624.47;8253783;28;20242;-78
2022/08/27 05:12:42;;;;;;;15.80;9.07;;;;;;;22.18;66.97;97622.69;8253439;28;20249;-79
2022/08/27 05:16:46;;;;;;;16.60;9.10;;;;;;;22.17;66.74;97621.00;8253188;28;20226;-78
2022/08/27 05:20:49;;;;;;;12.03;8.43;;;;;;;22.18;66.55;97627.94;8252727;28;20232;-78
2022/08/27 05:24:52;;;;;;;14.23;8.23;;;;;;;22.29;66.56;97626.91;8252772;28;20244;-78
2022/08/27 05:28:58;;;;;;;12.40;9.20;;;;;;;22.18;66.86;97633.22;8252941;28;20234;-78
2022/08/27 05:33:01;;;;;;;11.40;8.57;;;;;;;22.23;66.57;97636.22;8252667;28;20249;-78
2022/08/27 05:37:04;;;;;;;13.20;9.67;;;;;;;22.28;66.62;97630.53;8252673;28;20238;-78
2022/08/27 05:41:10;;;;;;;13.73;8.70;;;;;;;22.27;66.64;97635.97;8252062;28;20245;-78
2022/08/27 05:45:15;;;;;;;14.17;9.20;;;;;;;22.35;66.66;97630.75;8252562;28;20507;-78
2022/08/27 05:49:18;;;;;;;13.30;9.60;;;;;;;22.25;67.50;97639.56;8252372;28;20533;-78
2022/08/27 05:53:22;;;;;;;11.13;9.00;;;;;;;22.34;67.14;97627.31;8251902;28;20242;-78
2022/08/27 05:57:25;;;;;;;10.43;8.90;;;;;;;22.35;66.89;97634.25;8251965;28;20237;-78
2022/08/27 06:01:29;;;;;;;12.70;10.20;;;;;;;22.45;66.53;97631.53;8251612;28;20387;-78
2022/08/27 06:05:32;;;;;;;19.13;10.27;;;;;;;22.51;66.44;97630.09;8251619;28;20234;-78
2022/08/27 06:09:35;;;;;;;14.93;10.53;;;;;;;22.49;66.65;97635.53;8251484;28;20234;-79
2022/08/27 06:13:38;;;;;;;12.37;9.80;;;;;;;22.59;66.36;97638.91;8251533;28;20338;-78
2022/08/27 06:17:46;;;;;;;15.47;11.30;;;;;;;22.57;66.77;97638.22;8251558;28;20230;-78
2022/08/27 06:21:49;;;;;;;13.87;9.93;;;;;;;22.66;66.87;97639.13;8250417;28;20238;-78
2022/08/27 06:26:13;;;;;;;13.93;10.83;;;;;;;22.64;66.79;97652.47;8251365;28;20508;-78
2022/08/27 06:30:16;;;;;;;14.17;10.43;;;;;;;22.68;67.15;97647.72;8250918;28;20521;-78
2022/08/27 06:34:21;;;;;;;15.67;11.20;;;;;;;22.71;67.00;97644.75;8250744;28;20256;-78
2022/08/27 06:38:23;;;;;;;13.73;11.10;;;;;;;22.79;66.79;97654.56;8250971;28;20234;-78
2022/08/27 06:42:26;;;;;;;15.87;11.00;;;;;;;22.83;66.15;97653.28;8250687;28;20234;-78
2022/08/27 06:46:29;;;;;;;16.50;10.60;;;;;;;22.81;66.64;97655.25;8250569;28;20237;-78
2022/08/27 06:50:38;;;;;;;38.87;12.13;;;;;;;22.79;67.00;97665.97;8250353;28;20230;-78
2022/08/27 06:54:41;;;;;;;17.90;11.90;;;;;;;22.65;67.47;97663.84;8250080;28;20250;-78
2022/08/27 06:58:45;;;;;;;15.00;11.30;;;;;;;22.78;67.46;97664.28;8250206;28;20309;-79
2022/08/27 07:02:48;;;;;;;13.13;11.73;;;;;;;22.81;67.43;97663.19;8249612;28;20431;-78
2022/08/27 07:06:52;;;;;;;15.90;12.10;;;;;;;22.86;67.44;97657.44;8250305;28;20538;-78
2022/08/27 07:10:56;;;;;;;21.63;12.70;;;;;;;22.90;67.65;97669.34;8250142;28;20245;-78
2022/08/27 07:14:59;;;;;;;14.93;12.80;;;;;;;22.86;67.64;97671.44;8250098;28;20242;-78
2022/08/27 07:19:03;;;;;;;16.73;13.67;;;;;;;22.95;67.34;97661.78;8249896;28;20300;-78
2022/08/27 07:23:07;;;;;;;18.17;13.73;;;;;;;;;;8249092;28;20513;-78
2022/08/27 07:27:12;;;;;;;19.67;13.97;;;;;;;22.96;67.49;97674.00;8249686;28;20234;-79
2022/08/27 07:31:19;;;;;;;16.17;13.30;;;;;;;23.01;67.00;97680.47;8249654;28;20241;-78
2022/08/27 07:35:22;;;;;;;21.47;14.43;;;;;;;22.90;67.68;97680.72;8249680;28;20242;-78
2022/08/27 07:39:26;;;;;;;18.43;13.40;;;;;;;23.00;67.23;97680.66;8249734;28;20252;-78
2022/08/27 07:47:50;;;;;;;17.17;13.33;;;;;;;23.09;66.94;97690.31;8249113;28;20268;-77
2022/08/27 07:51:53;;;;;;;15.17;13.70;;;;;;;23.10;67.23;97689.34;8249577;28;20529;-78
2022/08/27 07:56:02;;;;;;;19.40;14.97;;;;;;;23.09;67.54;97689.47;8249561;28;20242;-78
2022/08/27 08:00:08;;;;;;;20.07;15.37;;;;;;;23.04;66.97;97692.59;8249589;28;20460;-78
2022/08/27 08:04:11;;;;;;;18.53;14.73;;;;;;;23.07;67.44;97689.63;8252786;28;20431;-78
2022/08/27 08:08:21;;;;;;;27.57;15.33;;;;;;;23.09;67.00;97690.31;8255520;28;20295;-78
2022/08/27 08:12:25;;;;;;;16.33;13.23;;;;;;;23.06;67.06;97695.91;8255261;28;20261;-79
2022/08/27 08:16:28;;;;;;;16.67;12.90;;;;;;;;;;8255377;28;20337;-79
2022/08/27 08:20:33;;;;;;;17.27;11.80;;;;;;;23.19;66.20;97706.09;8254920;28;20238;-79
2022/08/27 08:24:56;;;;;;;17.40;10.53;;;;;;;23.10;64.43;97707.81;8254136;28;20253;-79
2022/08/27 08:29:03;;;;;;;13.93;10.93;;;;;;;23.30;64.54;97708.44;8254849;28;20235;-78
2022/08/27 08:33:06;;;;;;;13.50;8.93;;;;;;;23.45;63.50;97714.00;8254328;28;20243;-79
2022/08/27 08:37:09;;;;;;;9.47;7.83;;;;;;;23.52;63.12;97714.22;8254452;28;20230;-79
2022/08/27 08:41:30;;;;;;;9.10;7.20;;;;;;;23.51;62.46;97717.81;8254409;28;20238;-79
2022/08/27 08:45:37;;;;;;;10.50;7.73;;;;;;;23.63;62.63;97716.59;8254252;28;20258;-79
2022/08/27 08:49:51;;;;;;;13.47;8.87;;;;;;;23.60;63.30;97725.66;8254185;28;20231;-80
2022/08/27 08:53:58;;;;;;;11.53;9.43;;;;;;;23.61;63.79;97723.84;8253468;28;20232;-79
2022/08/27 08:58:13;;;;;;;10.40;9.10;;;;;;;23.66;62.95;97720.72;8253731;28;20235;-79
2022/08/27 09:02:18;;;;;;;10.33;8.00;;;;;;;23.83;63.21;97727.78;8253870;28;20236;-79
2022/08/27 09:06:32;;;;;;;9.60;7.50;;;;;;;23.92;62.04;97731.31;8253515;28;20241;-79
2022/08/27 09:10:41;;;;;;;9.20;6.93;;;;;;;23.86;63.23;97730.13;8253326;28;20234;-79
2022/08/27 09:14:48;;;;;;;7.17;6.10;;;;;;;23.86;62.99;97734.59;8252601;28;20244;-79
2022/08/27 09:18:54;;;;;;;9.07;6.57;;;;;;;23.79;63.51;97724.63;8252850;28;20239;-79
2022/08/27 09:23:03;;;;;;;9.40;6.47;;;;;;;23.73;63.70;97742.91;8252981;28;20245;-79
2022/08/27 09:27:06;;;;;;;9.13;6.50;;;;;;;23.70;63.65;97740.56;8253179;28;20232;-79
2022/08/27 09:31:13;;;;;;;8.63;6.80;;;;;;;23.66;63.87;97739.22;8253056;28;20524;-79
2022/08/27 09:35:17;;;;;;;10.47;7.27;;;;;;;23.62;64.11;97736.06;8252939;28;20521;-79
2022/08/27 09:39:20;;;;;;;7.30;5.87;;;;;;;23.66;63.84;97736.59;8252800;28;20253;-79
2022/08/27 09:43:27;;;;;;;9.17;7.87;;;;;;;23.65;63.22;97738.41;8252764;28;20377;-79
2022/08/27 09:47:29;;;;;;;7.73;6.90;;;;;;;23.77;63.80;97738.97;8252507;28;20235;-79
2022/08/27 09:51:34;;;;;;;10.20;5.63;;;;;;;23.81;63.14;97733.22;8252046;28;20242;-79
2022/08/27 09:55:49;;;;;;;5.77;5.17;;;;;;;23.89;63.13;97743.00;8251934;28;20404;-79
2022/08/27 09:59:54;;;;;;;9.17;4.73;;;;;;;23.94;63.26;97737.28;8251751;28;20336;-79
2022/08/27 10:04:09;;;;;;;4.63;4.20;;;;;;;24.12;61.57;97732.72;8251770;28;20245;-79
2022/08/27 10:08:21;;;;;;;6.57;5.73;;;;;;;24.39;61.62;97723.72;8251459;28;20243;-79
2022/08/27 10:12:28;;;;;;;4.80;3.97;;;;;;;24.43;61.19;97723.38;8252033;28;20304;-79
2022/08/27 10:16:45;;;;;;;5.63;4.37;;;;;;;24.25;62.75;97734.09;8251642;28;20352;-79
2022/08/27 10:21:02;;;;;;;5.27;4.10;;;;;;;24.38;61.87;97729.97;8250945;28;20297;-79
2022/08/27 10:25:17;;;;;;;10.37;8.40;;;;;;;24.35;63.56;97730.31;8251036;28;20256;-79
2022/08/27 10:29:24;;;;;;;4.20;3.80;;;;;;;24.36;62.40;97736.44;8251237;28;20241;-79
2022/08/27 10:33:32;;;;;;;4.57;3.80;;;;;;;24.29;62.67;97738.06;8250958;28;20247;-79
2022/08/27 10:37:43;;;;;;;3.90;3.60;;;;;;;24.19;62.90;97743.50;8250871;28;20259;-79
2022/08/27 10:41:51;;;;;;;20.23;4.57;;;;;;;24.14;62.63;97743.13;8250847;28;20255;-79
2022/08/27 10:46:03;;;;;;;5.60;3.97;;;;;;;24.23;61.75;97744.81;8250490;28;20242;-78
2022/08/27 10:50:09;;;;;;;6.43;3.83;;;;;;;24.32;61.41;97738.56;8250518;28;20241;-79
2022/08/27 10:54:26;;;;;;;5.87;3.43;;;;;;;24.53;61.52;97735.50;8250332;28;20251;-79
2022/08/27 10:58:39;;;;;;;4.33;3.67;;;;;;;24.53;61.50;97742.63;8250289;28;20305;-79
2022/08/27 11:02:44;;;;;;;6.63;4.53;;;;;;;24.61;61.50;97733.88;8250360;28;20565;-79
2022/08/27 11:06:55;;;;;;;5.37;4.10;;;;;;;24.77;61.38;97737.38;8250233;28;20535;-79
2022/08/27 11:11:01;;;;;;;4.93;4.43;;;;;;;25.06;60.16;97722.84;8249809;28;20228;-79
2022/08/27 11:15:29;;;;;;;5.40;4.60;;;;;;;25.14;59.80;97716.69;8249657;28;20241;-79
2022/08/27 11:19:41;;;;;;;6.03;3.97;;;;;;;25.26;59.78;97715.38;8250113;28;20237;-79
2022/08/27 11:23:46;;;;;;;5.63;4.30;;;;;;;25.28;59.27;97717.88;8249539;28;20243;-79
2022/08/27 11:27:52;;;;;;;7.93;5.20;;;;;;;25.28;59.33;97716.03;8249605;28;20234;-79
2022/08/27 11:32:02;;;;;;;5.47;4.97;;;;;;;25.27;59.88;97721.53;8249559;28;20237;-79
2022/08/27 11:36:27;;;;;;;5.27;4.67;;;;;;;25.21;59.58;97715.06;8249589;28;20253;-79
2022/08/27 11:40:42;;;;;;;6.40;5.03;;;;;;;25.12;59.52;97718.69;8255301;28;20240;-79
2022/08/27 11:44:47;;;;;;;6.90;4.93;;;;;;;25.14;59.76;97714.88;8255828;28;20235;-80
2022/08/27 11:48:58;;;;;;;5.73;4.60;;;;;;;25.02;59.33;97712.72;8255677;28;20241;-79
2022/08/27 11:53:04;;;;;;;5.20;4.70;;;;;;;24.89;59.56;97706.09;8255720;28;20240;-79
2022/08/27 11:57:15;;;;;;;6.87;4.60;;;;;;;25.14;58.90;97709.56;8255692;28;20248;-79
2022/08/27 12:01:25;;;;;;;5.70;4.30;;;;;;;25.06;59.39;97712.25;8255804;28;20237;-79
2022/08/27 12:05:38;;;;;;;6.60;4.33;;;;;;;25.33;60.12;97712.91;8255559;28;20241;-79
2022/08/27 12:09:52;;;;;;;5.33;3.77;;;;;;;25.44;58.45;97711.75;8255188;28;20233;-79
2022/08/27 12:14:00;;;;;;;3.90;3.60;;;;;;;25.60;58.62;97703.75;8254946;28;20408;-79
2022/08/27 12:18:08;;;;;;;4.60;3.80;;;;;;;25.86;56.95;97707.97;8254947;28;20241;-79
2022/08/27 12:23:38;;;;;;;4.47;3.80;;;;;;;26.12;56.73;97708.56;8254883;28;20400;-79
2022/08/27 12:27:02;;;;;;;5.47;3.93;;;;;;;26.34;56.33;97698.16;8254576;28;20428;-79
2022/08/27 12:31:05;;;;;;;5.80;3.90;;;;;;;26.39;56.36;97693.16;8253549;28;20245;-79
2022/08/27 12:35:11;;;;;;;4.90;3.90;;;;;;;26.52;55.43;97695.22;8254723;28;20552;-79
2022/08/27 12:39:19;;;;;;;4.30;3.90;;;;;;;26.55;56.02;97694.88;8254333;28;20233;-79
2022/08/27 12:43:23;;;;;;;6.97;3.60;;;;;;;26.23;55.97;97686.09;8254209;28;20241;-80
2022/08/27 12:47:26;;;;;;;5.27;3.80;;;;;;;26.52;55.63;97687.25;8254630;28;20303;-79
2022/08/27 12:51:32;;;;;;;4.17;3.50;;;;;;;26.64;54.93;97691.22;8253211;28;20234;-79
2022/08/27 12:55:49;;;;;;;3.80;3.33;;;;;;;26.44;54.35;97687.31;8254211;28;20236;-80
2022/08/27 13:00:13;;;;;;;4.50;3.27;;;;;;;26.83;53.02;97679.28;8254342;28;20242;-79
2022/08/27 13:04:22;;;;;;;4.27;3.37;;;;;;;27.22;52.85;97682.75;8253898;28;20241;-80
2022/08/27 13:08:28;;;;;;;4.77;3.40;;;;;;;27.40;52.33;97683.28;8253781;28;20273;-80
2022/08/27 13:12:32;;;;;;;6.27;4.20;;;;;;;27.34;52.64;97677.84;8254043;28;20235;-80
2022/08/27 13:16:37;;;;;;;4.37;3.70;;;;;;;27.62;51.79;97678.06;8253555;28;20523;-80
2022/08/27 13:20:41;;;;;;;5.27;3.40;;;;;;;27.92;50.25;97680.75;8256258;28;20248;-80
2022/08/27 13:24:56;;;;;;;5.00;3.53;;;;;;;27.59;51.39;97673.94;8254277;28;20276;-80
2022/08/27 13:29:00;;;;;;;3.67;3.27;;;;;;;27.53;50.81;97677.34;8254234;28;20537;-80
2022/08/27 13:33:07;;;;;;;6.17;3.73;;;;;;;28.15;49.30;97681.44;8253087;28;20315;-79
2022/08/27 13:37:23;;;;;;;9.63;4.30;;;;;;;28.45;49.58;97684.84;8252871;28;20248;-79
2022/08/27 13:41:30;;;;;;;6.27;4.30;;;;;;;28.64;48.77;97680.75;8252890;28;20244;-80
2022/08/27 13:45:35;;;;;;;4.47;3.10;;;;;;;27.93;49.75;97680.56;8252870;28;20433;-80
2022/08/27 13:49:38;;;;;;;4.87;3.00;;;;;;;27.26;50.40;97676.94;8252877;28;20237;-80
2022/08/27 13:58:12;;;;;;;5.07;3.53;;;;;;;26.55;53.25;97670.97;8256896;28;20359;-80
2022/08/27 14:02:22;;;;;;;5.73;3.70;;;;;;;26.41;54.29;97669.09;8254554;28;20231;-81
2022/08/27 14:06:27;;;;;;;7.67;3.53;;;;;;;26.23;54.37;97659.56;8252087;28;20427;-80
2022/08/27 14:10:40;;;;;;;3.87;3.30;;;;;;;26.08;54.28;97658.66;8251667;28;20532;-80
2022/08/27 14:14:43;;;;;;;5.03;3.60;;;;;;;25.88;54.23;97663.53;8251342;28;20434;-80
2022/08/27 14:18:53;;;;;;;5.17;4.00;;;;;;;25.71;54.98;97668.09;8251453;28;20244;-80
2022/08/27 14:23:01;;;;;;;6.63;4.40;;;;;;;25.57;55.98;97659.03;8250986;28;20353;-80
2022/08/27 14:27:08;;;;;;;6.00;4.20;;;;;;;25.58;56.01;97665.16;8254243;28;20307;-80
2022/08/27 14:31:11;;;;;;;5.47;4.50;;;;;;;25.61;55.36;97656.84;8251274;28;20247;-79
2022/08/27 14:35:16;;;;;;;5.43;4.60;;;;;;;26.01;54.57;97657.69;8250697;28;20235;-80
2022/08/27 14:39:27;;;;;;;8.07;4.73;;;;;;;25.85;55.36;97651.44;8250900;28;20577;-80
2022/08/27 14:43:30;;;;;;;5.40;4.70;;;;;;;25.98;55.38;97663.38;8250829;28;20231;-80
2022/08/27 14:47:33;;;;;;;4.87;3.50;;;;;;;26.62;53.69;97653.38;8250953;28;20241;-80
2022/08/27 14:51:37;;;;;;;4.93;3.90;;;;;;;26.98;54.07;97660.72;8250360;28;20244;-80
2022/08/27 14:55:40;;;;;;;6.40;4.20;;;;;;;26.33;54.69;97654.88;8250297;28;20421;-80
2022/08/27 14:59:48;;;;;;;5.73;3.70;;;;;;;26.10;54.65;97657.50;8250139;28;20232;-79
2022/08/27 15:03:51;;;;;;;5.00;3.80;;;;;;;25.89;54.02;97658.06;8250347;28;20233;-79
2022/08/27 15:07:56;;;;;;;4.47;3.70;;;;;;;26.04;53.98;97662.66;8249915;28;20238;-80
2022/08/27 15:12:00;;;;;;;5.97;3.70;;;;;;;25.90;54.09;97664.19;8249337;28;20348;-80
2022/08/27 15:16:03;;;;;;;4.90;3.90;;;;;;;25.98;55.01;97664.19;8250119;28;20241;-80
2022/08/27 15:20:09;;;;;;;6.33;3.70;;;;;;;25.94;54.29;97669.00;8249966;28;20398;-80
2022/08/27 15:24:25;;;;;;;5.93;3.60;;;;;;;25.86;54.35;97668.19;8249503;28;20471;-78
2022/08/27 15:28:28;;;;;;;7.30;3.80;;;;;;;25.88;54.43;97666.19;8250009;28;20523;-79
2022/08/27 15:32:33;;;;;;;4.67;3.80;;;;;;;25.80;53.86;97659.09;8249535;28;20241;-80
2022/08/27 15:36:36;;;;;;;4.87;3.40;;;;;;;25.96;53.68;97657.41;8249534;28;20240;-80
2022/08/27 15:40:42;;;;;;;8.47;4.23;;;;;;;26.16;53.52;97653.34;8249704;28;20236;-80
2022/08/27 15:44:47;;;;;;;5.80;4.03;;;;;;;25.98;53.61;97666.84;8249601;28;20309;-80
2022/08/27 15:48:50;;;;;;;8.97;4.10;;;;;;;26.17;52.88;97648.84;8248994;28;20273;-80
2022/08/27 15:53:00;;;;;;;8.17;4.63;;;;;;;26.15;53.80;97654.31;8249073;28;20243;-79
2022/08/27 15:57:05;;;;;;;5.77;3.83;;;;;;;26.24;53.01;97655.09;8249331;28;20243;-79
2022/08/27 16:01:11;;;;;;;6.47;4.37;;;;;;;26.22;53.17;97654.47;8249144;28;20228;-79
2022/08/27 16:05:15;;;;;;;8.03;4.83;;;;;;;25.98;52.79;97655.41;8249400;28;20597;-80
2022/08/27 16:09:18;;;;;;;6.43;4.57;;;;;;;25.86;53.58;97661.06;8249014;28;20264;-79
2022/08/27 16:13:23;;;;;;;6.90;5.40;;;;;;;25.67;54.60;97646.38;8248928;28;20236;-80
2022/08/27 16:17:26;;;;;;;6.43;4.43;;;;;;;25.62;54.52;97654.00;8249068;28;20247;-80
2022/08/27 16:21:29;;;;;;;6.57;5.00;;;;;;;25.59;54.41;97662.34;8248539;28;20241;-80
2022/08/27 16:25:32;;;;;;;6.63;4.43;;;;;;;25.56;55.12;97658.19;8252924;28;20249;-80
2022/08/27 16:29:37;;;;;;;6.80;4.70;;;;;;;25.56;55.69;97660.00;8254993;28;20231;-80
2022/08/27 16:33:41;;;;;;;9.47;5.10;;;;;;;25.42;56.23;97669.50;8254224;28;20357;-80
2022/08/27 16:37:45;;;;;;;5.47;4.80;;;;;;;25.29;56.53;97667.38;8254331;28;20238;-80
2022/08/27 16:41:47;;;;;;;9.27;5.07;;;;;;;25.43;56.60;97663.19;8253861;28;20242;-79
2022/08/27 16:45:53;;;;;;;7.97;4.70;;;;;;;25.29;57.41;97671.84;8253857;28;20241;-79
2022/08/27 16:54:27;;;;;;;8.23;5.10;;;;;;;25.40;56.50;97670.66;8253857;28;20235;-80
2022/08/27 16:58:31;;;;;;;6.03;4.60;;;;;;;25.45;56.49;97676.28;8253683;28;20346;-80
2022/08/27 17:02:38;;;;;;;5.87;4.47;;;;;;;25.39;57.54;97688.38;8253746;28;20269;-80
2022/08/27 17:06:42;;;;;;;7.83;4.43;;;;;;;25.07;57.30;97691.88;8253782;28;20240;-80
2022/08/27 17:10:49;;;;;;;5.33;4.07;;;;;;;25.03;57.05;97688.72;8253413;28;20241;-81
2022/08/27 17:14:54;;;;;;;4.93;3.50;;;;;;;24.69;58.07;97692.34;8252543;28;20238;-79
2022/08/27 17:19:01;;;;;;;6.10;3.93;;;;;;;24.89;58.05;97689.41;8253256;28;20603;-79
2022/08/27 17:23:05;;;;;;;7.10;4.10;;;;;;;24.80;57.50;97693.84;8253041;28;20240;-79
2022/08/27 17:27:08;;;;;;;6.73;3.93;;;;;;;24.76;57.78;97706.59;8252972;28;20279;-80
2022/08/27 17:31:14;;;;;;;5.53;3.77;;;;;;;24.72;57.43;97715.84;8252742;28;20234;-80
2022/08/27 17:35:18;;;;;;;6.43;3.90;;;;;;;24.69;58.04;97715.34;8252007;28;20249;-80
2022/08/27 17:39:21;;;;;;;7.73;4.37;;;;;;;24.67;58.18;97717.34;8252372;28;20243;-80
2022/08/27 17:43:25;;;;;;;5.43;4.20;;;;;;;24.59;58.78;97718.97;8252409;28;20238;-80
2022/08/27 17:47:28;;;;;;;5.70;3.93;;;;;;;24.52;59.33;97714.50;8252451;28;20235;-80
2022/08/27 17:51:34;;;;;;;7.70;4.27;;;;;;;24.53;59.10;97710.88;8252088;28;20302;-80
2022/08/27 17:55:37;;;;;;;8.83;4.70;;;;;;;24.44;59.50;97723.22;8251788;28;20241;-80
2022/08/27 17:59:40;;;;;;;8.37;4.90;;;;;;;24.36;60.32;97718.72;8251800;28;20230;-80
2022/08/27 18:03:43;;;;;;;5.87;4.80;;;;;;;24.25;60.71;97723.50;8251922;28;20241;-80
2022/08/27 18:07:52;;;;;;;8.07;4.97;;;;;;;24.23;60.68;97725.47;8251380;28;20331;-79
2022/08/27 18:11:55;;;;;;;10.93;5.73;;;;;;;24.06;61.13;97728.06;8251116;28;20244;-80
2022/08/27 18:15:58;;;;;;;11.97;5.70;;;;;;;24.11;61.55;97736.34;8251395;28;20230;-79
2022/08/27 18:20:01;;;;;;;9.07;5.47;;;;;;;24.04;61.55;97740.59;8251273;28;20236;-80
2022/08/27 18:24:09;;;;;;;9.63;5.50;;;;;;;23.99;61.41;97742.91;8250842;28;20249;-80
2022/08/27 18:28:13;;;;;;;7.57;5.10;;;;;;;23.96;61.19;97751.97;8250346;28;20213;-80
2022/08/27 18:32:16;;;;;;;11.23;5.50;;;;;;;23.97;61.46;97763.38;8250955;28;20242;-80
2022/08/27 18:36:19;;;;;;;10.13;6.30;;;;;;;23.89;61.61;97761.53;8250783;28;20518;-80
2022/08/27 18:40:27;;;;;;;8.33;5.50;;;;;;;23.91;61.38;97759.59;8250510;28;20234;-81
2022/08/27 18:44:31;;;;;;;11.13;6.63;;;;;;;23.89;61.66;97768.63;8250603;28;20396;-81
2022/08/27 18:48:34;;;;;;;8.93;5.70;;;;;;;23.87;62.11;97771.44;8250645;28;20364;-80
2022/08/27 18:52:38;;;;;;;8.97;5.27;;;;;;;23.88;61.60;97781.03;8250355;28;20229;-78
2022/08/27 18:56:43;;;;;;;7.70;5.97;;;;;;;23.85;62.25;97786.63;8250112;28;20241;-79
2022/08/27 19:00:47;;;;;;;7.80;5.43;;;;;;;23.80;62.10;97794.22;8250195;28;20238;-78
2022/08/27 19:04:50;;;;;;;13.40;5.90;;;;;;;23.80;62.63;97795.03;8249787;28;20243;-78
2022/08/27 19:08:53;;;;;;;8.10;5.80;;;;;;;23.78;62.83;97801.44;8250081;28;20238;-78
2022/08/27 19:12:57;;;;;;;8.20;5.43;;;;;;;23.71;63.30;97806.50;8249764;28;20236;-78
2022/08/27 19:17:02;;;;;;;8.80;6.10;;;;;;;23.73;63.35;97801.91;8249655;28;20248;-79
2022/08/27 19:21:06;;;;;;;8.70;5.60;;;;;;;23.65;63.42;97807.13;8249926;28;20240;-78
2022/08/27 19:25:09;;;;;;;9.50;5.80;;;;;;;23.71;63.33;97811.78;8247011;28;20278;-80